sensor_id;sensor_type;location;lat;lon;timestamp;P1;durP1;ratioP1;P2;durP2;ratioP2
46158;SDS011;74657;45.650;25.590;2023-12-04T00:00:50;24.52;;;10.88;;
46158;SDS011;74657;45.650;25.590;2023-12-04T00:03:13;23.05;;;11.32;;
46158;SDS011;74657;45.650;25.590;2023-12-04T00:05:37;26.10;;;11.57;;
46158;SDS011;74657;45.650;25.590;2023-12-04T00:07:59;22.92;;;11.80;;
46158;SDS011;74657;45.650;25.590;2023-12-04T00:10:24;25.90;;;11.68;;
46158;SDS011;74657;45.650;25.590;2023-12-04T00:12:47;27.65;;;13.07;;
46158;SDS011;74657;45.650;25.590;2023-12-04T00:15:10;26.65;;;12.23;;
46158;SDS011;74657;45.650;25.590;2023-12-04T00:17:33;25.95;;;12.85;;
46158;SDS011;74657;45.650;25.590;2023-12-04T00:20:00;28.33;;;12.80;;
46158;SDS011;74657;45.650;25.590;2023-12-04T00:22:23;25.27;;;11.93;;
46158;SDS011;74657;45.650;25.590;2023-12-04T00:24:47;24.05;;;12.45;;
46158;SDS011;74657;45.650;25.590;2023-12-04T00:27:13;25.77;;;12.38;;
46158;SDS011;74657;45.650;25.590;2023-12-04T00:29:36;26.40;;;12.02;;
46158;SDS011;74657;45.650;25.590;2023-12-04T00:31:58;32.85;;;12.73;;
46158;SDS011;74657;45.650;25.590;2023-12-04T00:34:21;26.75;;;12.82;;
46158;SDS011;74657;45.650;25.590;2023-12-04T00:36:44;28.40;;;13.02;;
46158;SDS011;74657;45.650;25.590;2023-12-04T00:39:07;24.92;;;11.75;;
46158;SDS011;74657;45.650;25.590;2023-12-04T00:41:30;25.15;;;13.32;;
46158;SDS011;74657;45.650;25.590;2023-12-04T00:43:56;26.33;;;11.38;;
46158;SDS011;74657;45.650;25.590;2023-12-04T00:46:19;28.00;;;13.27;;
46158;SDS011;74657;45.650;25.590;2023-12-04T00:48:42;29.13;;;13.13;;
46158;SDS011;74657;45.650;25.590;2023-12-04T00:51:07;25.83;;;12.65;;
46158;SDS011;74657;45.650;25.590;2023-12-04T00:53:30;26.60;;;12.95;;
46158;SDS011;74657;45.650;25.590;2023-12-04T00:55:52;25.10;;;12.82;;
46158;SDS011;74657;45.650;25.590;2023-12-04T00:58:15;25.98;;;11.55;;
46158;SDS011;74657;45.650;25.590;2023-12-04T01:00:39;28.95;;;13.98;;
46158;SDS011;74657;45.650;25.590;2023-12-04T01:03:02;29.10;;;13.82;;
46158;SDS011;74657;45.650;25.590;2023-12-04T01:05:26;30.02;;;13.90;;
46158;SDS011;74657;45.650;25.590;2023-12-04T01:07:49;26.98;;;13.32;;
46158;SDS011;74657;45.650;25.590;2023-12-04T01:10:12;22.77;;;12.32;;
46158;SDS011;74657;45.650;25.590;2023-12-04T01:12:35;26.48;;;12.43;;
46158;SDS011;74657;45.650;25.590;2023-12-04T01:14:58;24.27;;;12.55;;
46158;SDS011;74657;45.650;25.590;2023-12-04T01:17:22;26.17;;;12.05;;
46158;SDS011;74657;45.650;25.590;2023-12-04T01:19:45;26.98;;;12.30;;
46158;SDS011;74657;45.650;25.590;2023-12-04T01:22:09;25.42;;;12.55;;
46158;SDS011;74657;45.650;25.590;2023-12-04T01:24:32;27.73;;;11.75;;
46158;SDS011;74657;45.650;25.590;2023-12-04T01:26:55;24.52;;;11.82;;
46158;SDS011;74657;45.650;25.590;2023-12-04T01:29:17;24.90;;;12.02;;
46158;SDS011;74657;45.650;25.590;2023-12-04T01:31:40;28.30;;;11.70;;
46158;SDS011;74657;45.650;25.590;2023-12-04T01:34:04;28.27;;;13.07;;
46158;SDS011;74657;45.650;25.590;2023-12-04T01:36:27;24.52;;;12.73;;
46158;SDS011;74657;45.650;25.590;2023-12-04T01:38:52;29.45;;;12.77;;
46158;SDS011;74657;45.650;25.590;2023-12-04T01:41:15;25.88;;;12.60;;
46158;SDS011;74657;45.650;25.590;2023-12-04T01:43:38;21.60;;;11.57;;
46158;SDS011;74657;45.650;25.590;2023-12-04T01:46:01;26.00;;;11.35;;
46158;SDS011;74657;45.650;25.590;2023-12-04T01:48:25;24.65;;;12.55;;
46158;SDS011;74657;45.650;25.590;2023-12-04T01:50:51;24.40;;;12.10;;
46158;SDS011;74657;45.650;25.590;2023-12-04T01:53:14;26.92;;;12.77;;
46158;SDS011;74657;45.650;25.590;2023-12-04T01:55:37;27.83;;;12.18;;
46158;SDS011;74657;45.650;25.590;2023-12-04T01:58:01;27.17;;;12.75;;
46158;SDS011;74657;45.650;25.590;2023-12-04T02:00:25;28.20;;;13.80;;
46158;SDS011;74657;45.650;25.590;2023-12-04T02:02:48;30.13;;;13.02;;
46158;SDS011;74657;45.650;25.590;2023-12-04T02:05:11;23.58;;;12.25;;
46158;SDS011;74657;45.650;25.590;2023-12-04T02:07:36;27.60;;;12.20;;
46158;SDS011;74657;45.650;25.590;2023-12-04T02:09:59;21.77;;;11.30;;
46158;SDS011;74657;45.650;25.590;2023-12-04T02:12:22;23.10;;;11.02;;
46158;SDS011;74657;45.650;25.590;2023-12-04T02:14:46;21.85;;;10.05;;
46158;SDS011;74657;45.650;25.590;2023-12-04T02:17:09;22.33;;;10.93;;
46158;SDS011;74657;45.650;25.590;2023-12-04T02:19:34;24.83;;;11.82;;
46158;SDS011;74657;45.650;25.590;2023-12-04T02:21:57;23.63;;;11.27;;
46158;SDS011;74657;45.650;25.590;2023-12-04T02:24:21;21.13;;;10.85;;
46158;SDS011;74657;45.650;25.590;2023-12-04T02:26:45;24.90;;;11.23;;
46158;SDS011;74657;45.650;25.590;2023-12-04T02:29:11;22.98;;;10.63;;
46158;SDS011;74657;45.650;25.590;2023-12-04T02:31:42;22.95;;;10.00;;
46158;SDS011;74657;45.650;25.590;2023-12-04T02:34:06;23.65;;;10.93;;
46158;SDS011;74657;45.650;25.590;2023-12-04T02:36:29;22.00;;;10.20;;
46158;SDS011;74657;45.650;25.590;2023-12-04T02:38:53;22.00;;;9.95;;
46158;SDS011;74657;45.650;25.590;2023-12-04T02:41:18;23.65;;;11.02;;
46158;SDS011;74657;45.650;25.590;2023-12-04T02:43:41;24.90;;;10.93;;
46158;SDS011;74657;45.650;25.590;2023-12-04T02:46:05;24.48;;;11.93;;
46158;SDS011;74657;45.650;25.590;2023-12-04T02:48:28;23.85;;;11.88;;
46158;SDS011;74657;45.650;25.590;2023-12-04T02:50:51;25.67;;;13.05;;
46158;SDS011;74657;45.650;25.590;2023-12-04T02:53:14;24.42;;;11.40;;
46158;SDS011;74657;45.650;25.590;2023-12-04T02:55:38;25.25;;;12.23;;
46158;SDS011;74657;45.650;25.590;2023-12-04T02:58:02;28.20;;;12.98;;
46158;SDS011;74657;45.650;25.590;2023-12-04T03:00:25;29.25;;;12.35;;
46158;SDS011;74657;45.650;25.590;2023-12-04T03:02:47;33.90;;;13.70;;
46158;SDS011;74657;45.650;25.590;2023-12-04T03:05:10;30.13;;;13.98;;
46158;SDS011;74657;45.650;25.590;2023-12-04T03:07:34;31.08;;;13.32;;
46158;SDS011;74657;45.650;25.590;2023-12-04T03:09:57;31.50;;;13.48;;
46158;SDS011;74657;45.650;25.590;2023-12-04T03:12:20;27.85;;;13.18;;
46158;SDS011;74657;45.650;25.590;2023-12-04T03:14:45;33.28;;;14.18;;
46158;SDS011;74657;45.650;25.590;2023-12-04T03:17:08;31.15;;;14.25;;
46158;SDS011;74657;45.650;25.590;2023-12-04T03:19:31;25.85;;;13.55;;
46158;SDS011;74657;45.650;25.590;2023-12-04T03:21:55;30.80;;;12.88;;
46158;SDS011;74657;45.650;25.590;2023-12-04T03:24:18;30.63;;;13.20;;
46158;SDS011;74657;45.650;25.590;2023-12-04T03:26:42;26.50;;;12.13;;
46158;SDS011;74657;45.650;25.590;2023-12-04T03:29:04;29.17;;;12.65;;
46158;SDS011;74657;45.650;25.590;2023-12-04T03:31:29;28.00;;;12.05;;
46158;SDS011;74657;45.650;25.590;2023-12-04T03:33:54;27.95;;;12.93;;
46158;SDS011;74657;45.650;25.590;2023-12-04T03:36:19;29.55;;;12.77;;
46158;SDS011;74657;45.650;25.590;2023-12-04T03:38:41;26.55;;;12.00;;
46158;SDS011;74657;45.650;25.590;2023-12-04T03:41:07;27.58;;;12.65;;
46158;SDS011;74657;45.650;25.590;2023-12-04T03:43:36;24.35;;;12.43;;
46158;SDS011;74657;45.650;25.590;2023-12-04T03:45:59;24.60;;;12.48;;
46158;SDS011;74657;45.650;25.590;2023-12-04T03:48:23;26.40;;;12.13;;
46158;SDS011;74657;45.650;25.590;2023-12-04T03:50:47;26.58;;;12.77;;
46158;SDS011;74657;45.650;25.590;2023-12-04T03:53:12;29.63;;;12.32;;
46158;SDS011;74657;45.650;25.590;2023-12-04T03:55:37;29.98;;;13.63;;
46158;SDS011;74657;45.650;25.590;2023-12-04T03:57:59;32.10;;;14.57;;
46158;SDS011;74657;45.650;25.590;2023-12-04T04:00:22;32.30;;;14.90;;
46158;SDS011;74657;45.650;25.590;2023-12-04T04:02:45;31.58;;;13.98;;
46158;SDS011;74657;45.650;25.590;2023-12-04T04:05:09;27.88;;;12.60;;
46158;SDS011;74657;45.650;25.590;2023-12-04T04:07:32;29.80;;;13.13;;
46158;SDS011;74657;45.650;25.590;2023-12-04T04:09:55;27.73;;;12.45;;
46158;SDS011;74657;45.650;25.590;2023-12-04T04:12:18;25.48;;;12.02;;
46158;SDS011;74657;45.650;25.590;2023-12-04T04:14:41;22.08;;;11.52;;
46158;SDS011;74657;45.650;25.590;2023-12-04T04:17:04;24.10;;;12.32;;
46158;SDS011;74657;45.650;25.590;2023-12-04T04:19:28;25.17;;;11.48;;
46158;SDS011;74657;45.650;25.590;2023-12-04T04:21:53;24.90;;;11.90;;
46158;SDS011;74657;45.650;25.590;2023-12-04T04:24:16;28.38;;;12.48;;
46158;SDS011;74657;45.650;25.590;2023-12-04T04:26:38;27.25;;;11.88;;
46158;SDS011;74657;45.650;25.590;2023-12-04T04:29:01;25.95;;;13.35;;
46158;SDS011;74657;45.650;25.590;2023-12-04T04:31:24;28.30;;;12.48;;
46158;SDS011;74657;45.650;25.590;2023-12-04T04:33:47;24.00;;;10.75;;
46158;SDS011;74657;45.650;25.590;2023-12-04T04:36:10;26.42;;;12.23;;
46158;SDS011;74657;45.650;25.590;2023-12-04T04:38:34;24.73;;;11.73;;
46158;SDS011;74657;45.650;25.590;2023-12-04T04:40:57;27.67;;;13.20;;
46158;SDS011;74657;45.650;25.590;2023-12-04T04:43:20;26.98;;;11.68;;
46158;SDS011;74657;45.650;25.590;2023-12-04T04:45:42;24.95;;;11.93;;
46158;SDS011;74657;45.650;25.590;2023-12-04T04:48:05;27.65;;;11.85;;
46158;SDS011;74657;45.650;25.590;2023-12-04T04:50:29;24.70;;;11.48;;
46158;SDS011;74657;45.650;25.590;2023-12-04T04:52:52;22.65;;;10.77;;
46158;SDS011;74657;45.650;25.590;2023-12-04T04:55:16;27.55;;;12.85;;
46158;SDS011;74657;45.650;25.590;2023-12-04T04:57:58;26.30;;;12.23;;
46158;SDS011;74657;45.650;25.590;2023-12-04T05:00:21;25.55;;;12.77;;
46158;SDS011;74657;45.650;25.590;2023-12-04T05:02:43;25.23;;;12.48;;
46158;SDS011;74657;45.650;25.590;2023-12-04T05:05:06;24.48;;;11.80;;
46158;SDS011;74657;45.650;25.590;2023-12-04T05:07:29;23.83;;;11.60;;
46158;SDS011;74657;45.650;25.590;2023-12-04T05:09:51;26.45;;;12.40;;
46158;SDS011;74657;45.650;25.590;2023-12-04T05:12:16;25.95;;;11.98;;
46158;SDS011;74657;45.650;25.590;2023-12-04T05:14:39;47.05;;;18.27;;
46158;SDS011;74657;45.650;25.590;2023-12-04T05:17:02;31.90;;;14.57;;
46158;SDS011;74657;45.650;25.590;2023-12-04T05:19:25;23.52;;;10.65;;
46158;SDS011;74657;45.650;25.590;2023-12-04T05:21:48;23.70;;;10.45;;
46158;SDS011;74657;45.650;25.590;2023-12-04T05:24:10;20.05;;;10.23;;
46158;SDS011;74657;45.650;25.590;2023-12-04T05:26:33;18.80;;;10.20;;
46158;SDS011;74657;45.650;25.590;2023-12-04T05:28:57;20.40;;;9.88;;
46158;SDS011;74657;45.650;25.590;2023-12-04T05:31:20;21.33;;;10.55;;
46158;SDS011;74657;45.650;25.590;2023-12-04T05:33:44;20.67;;;10.40;;
46158;SDS011;74657;45.650;25.590;2023-12-04T05:36:07;18.85;;;10.05;;
46158;SDS011;74657;45.650;25.590;2023-12-04T05:38:31;20.08;;;9.05;;
46158;SDS011;74657;45.650;25.590;2023-12-04T05:40:54;18.73;;;9.20;;
46158;SDS011;74657;45.650;25.590;2023-12-04T05:43:16;20.08;;;10.20;;
46158;SDS011;74657;45.650;25.590;2023-12-04T05:45:43;22.15;;;9.35;;
46158;SDS011;74657;45.650;25.590;2023-12-04T05:48:08;17.48;;;8.68;;
46158;SDS011;74657;45.650;25.590;2023-12-04T05:50:30;20.10;;;8.80;;
46158;SDS011;74657;45.650;25.590;2023-12-04T05:52:53;18.13;;;8.45;;
46158;SDS011;74657;45.650;25.590;2023-12-04T05:55:16;22.10;;;8.90;;
46158;SDS011;74657;45.650;25.590;2023-12-04T05:57:39;20.77;;;9.38;;
46158;SDS011;74657;45.650;25.590;2023-12-04T06:00:02;19.00;;;9.57;;
46158;SDS011;74657;45.650;25.590;2023-12-04T06:02:28;20.67;;;9.25;;
46158;SDS011;74657;45.650;25.590;2023-12-04T06:04:52;20.85;;;10.05;;
46158;SDS011;74657;45.650;25.590;2023-12-04T06:07:15;18.15;;;9.57;;
46158;SDS011;74657;45.650;25.590;2023-12-04T06:09:38;18.45;;;9.15;;
46158;SDS011;74657;45.650;25.590;2023-12-04T06:12:01;20.10;;;9.18;;
46158;SDS011;74657;45.650;25.590;2023-12-04T06:14:29;19.20;;;8.77;;
46158;SDS011;74657;45.650;25.590;2023-12-04T06:16:52;20.13;;;10.13;;
46158;SDS011;74657;45.650;25.590;2023-12-04T06:19:16;21.27;;;10.30;;
46158;SDS011;74657;45.650;25.590;2023-12-04T06:21:39;21.55;;;10.20;;
46158;SDS011;74657;45.650;25.590;2023-12-04T06:24:02;19.02;;;10.05;;
46158;SDS011;74657;45.650;25.590;2023-12-04T06:26:27;19.95;;;9.98;;
46158;SDS011;74657;45.650;25.590;2023-12-04T06:28:53;20.15;;;10.15;;
46158;SDS011;74657;45.650;25.590;2023-12-04T06:31:17;19.63;;;10.32;;
46158;SDS011;74657;45.650;25.590;2023-12-04T06:33:40;20.75;;;10.52;;
46158;SDS011;74657;45.650;25.590;2023-12-04T06:36:06;24.95;;;11.43;;
46158;SDS011;74657;45.650;25.590;2023-12-04T06:38:31;23.92;;;10.77;;
46158;SDS011;74657;45.650;25.590;2023-12-04T06:40:55;24.58;;;10.63;;
46158;SDS011;74657;45.650;25.590;2023-12-04T06:43:19;22.35;;;9.90;;
46158;SDS011;74657;45.650;25.590;2023-12-04T06:45:43;20.92;;;9.85;;
46158;SDS011;74657;45.650;25.590;2023-12-04T06:48:06;24.10;;;10.63;;
46158;SDS011;74657;45.650;25.590;2023-12-04T06:50:31;19.65;;;9.15;;
46158;SDS011;74657;45.650;25.590;2023-12-04T06:52:55;20.58;;;9.73;;
46158;SDS011;74657;45.650;25.590;2023-12-04T06:55:18;18.30;;;9.23;;
46158;SDS011;74657;45.650;25.590;2023-12-04T06:57:41;22.00;;;9.90;;
46158;SDS011;74657;45.650;25.590;2023-12-04T07:00:04;16.15;;;8.43;;
46158;SDS011;74657;45.650;25.590;2023-12-04T07:02:42;14.80;;;7.97;;
46158;SDS011;74657;45.650;25.590;2023-12-04T07:05:07;22.40;;;9.93;;
46158;SDS011;74657;45.650;25.590;2023-12-04T07:07:30;19.98;;;9.55;;
46158;SDS011;74657;45.650;25.590;2023-12-04T07:09:54;16.33;;;8.00;;
46158;SDS011;74657;45.650;25.590;2023-12-04T07:12:17;16.45;;;8.43;;
46158;SDS011;74657;45.650;25.590;2023-12-04T07:14:41;16.23;;;7.78;;
46158;SDS011;74657;45.650;25.590;2023-12-04T07:17:03;16.10;;;8.02;;
46158;SDS011;74657;45.650;25.590;2023-12-04T07:19:26;19.08;;;7.97;;
46158;SDS011;74657;45.650;25.590;2023-12-04T07:21:49;17.60;;;8.63;;
46158;SDS011;74657;45.650;25.590;2023-12-04T07:24:12;16.63;;;8.68;;
46158;SDS011;74657;45.650;25.590;2023-12-04T07:26:36;14.32;;;7.78;;
46158;SDS011;74657;45.650;25.590;2023-12-04T07:28:59;16.02;;;7.88;;
46158;SDS011;74657;45.650;25.590;2023-12-04T07:31:22;16.05;;;8.20;;
46158;SDS011;74657;45.650;25.590;2023-12-04T07:33:46;13.70;;;8.65;;
46158;SDS011;74657;45.650;25.590;2023-12-04T07:36:09;20.05;;;8.68;;
46158;SDS011;74657;45.650;25.590;2023-12-04T07:38:32;16.20;;;7.88;;
46158;SDS011;74657;45.650;25.590;2023-12-04T07:40:55;16.75;;;8.68;;
46158;SDS011;74657;45.650;25.590;2023-12-04T07:43:20;19.52;;;8.63;;
46158;SDS011;74657;45.650;25.590;2023-12-04T07:45:43;15.07;;;8.65;;
46158;SDS011;74657;45.650;25.590;2023-12-04T07:48:06;18.00;;;9.23;;
46158;SDS011;74657;45.650;25.590;2023-12-04T07:50:29;17.48;;;8.93;;
46158;SDS011;74657;45.650;25.590;2023-12-04T07:52:52;21.05;;;9.65;;
46158;SDS011;74657;45.650;25.590;2023-12-04T07:55:14;18.70;;;9.10;;
46158;SDS011;74657;45.650;25.590;2023-12-04T07:57:38;15.98;;;8.40;;
46158;SDS011;74657;45.650;25.590;2023-12-04T08:00:03;18.17;;;9.18;;
46158;SDS011;74657;45.650;25.590;2023-12-04T08:02:27;17.65;;;9.98;;
46158;SDS011;74657;45.650;25.590;2023-12-04T08:04:50;17.65;;;9.90;;
46158;SDS011;74657;45.650;25.590;2023-12-04T08:07:14;19.20;;;9.60;;
46158;SDS011;74657;45.650;25.590;2023-12-04T08:09:36;21.45;;;10.25;;
46158;SDS011;74657;45.650;25.590;2023-12-04T08:12:00;18.77;;;10.68;;
46158;SDS011;74657;45.650;25.590;2023-12-04T08:14:23;27.88;;;11.60;;
46158;SDS011;74657;45.650;25.590;2023-12-04T08:16:49;21.83;;;10.50;;
46158;SDS011;74657;45.650;25.590;2023-12-04T08:19:12;22.13;;;10.95;;
46158;SDS011;74657;45.650;25.590;2023-12-04T08:21:35;23.92;;;10.85;;
46158;SDS011;74657;45.650;25.590;2023-12-04T08:23:58;21.83;;;10.23;;
46158;SDS011;74657;45.650;25.590;2023-12-04T08:26:21;22.20;;;11.25;;
46158;SDS011;74657;45.650;25.590;2023-12-04T08:28:44;26.38;;;10.85;;
46158;SDS011;74657;45.650;25.590;2023-12-04T08:31:07;22.70;;;10.93;;
46158;SDS011;74657;45.650;25.590;2023-12-04T08:33:32;22.98;;;11.55;;
46158;SDS011;74657;45.650;25.590;2023-12-04T08:35:56;24.45;;;12.05;;
46158;SDS011;74657;45.650;25.590;2023-12-04T08:38:19;38.90;;;17.00;;
46158;SDS011;74657;45.650;25.590;2023-12-04T08:40:42;26.00;;;13.07;;
46158;SDS011;74657;45.650;25.590;2023-12-04T08:43:05;24.65;;;11.63;;
46158;SDS011;74657;45.650;25.590;2023-12-04T08:45:28;27.52;;;11.38;;
46158;SDS011;74657;45.650;25.590;2023-12-04T08:47:51;21.55;;;10.70;;
46158;SDS011;74657;45.650;25.590;2023-12-04T08:50:15;22.98;;;11.23;;
46158;SDS011;74657;45.650;25.590;2023-12-04T08:52:38;23.45;;;10.98;;
46158;SDS011;74657;45.650;25.590;2023-12-04T08:55:03;25.55;;;11.77;;
46158;SDS011;74657;45.650;25.590;2023-12-04T08:57:28;23.83;;;11.48;;
46158;SDS011;74657;45.650;25.590;2023-12-04T08:59:51;27.20;;;11.85;;
46158;SDS011;74657;45.650;25.590;2023-12-04T09:02:14;20.65;;;11.15;;
46158;SDS011;74657;45.650;25.590;2023-12-04T09:04:36;23.70;;;11.80;;
46158;SDS011;74657;45.650;25.590;2023-12-04T09:07:01;21.95;;;10.60;;
46158;SDS011;74657;45.650;25.590;2023-12-04T09:09:27;18.30;;;10.73;;
46158;SDS011;74657;45.650;25.590;2023-12-04T09:11:50;20.88;;;10.63;;
46158;SDS011;74657;45.650;25.590;2023-12-04T09:14:13;23.95;;;10.77;;
46158;SDS011;74657;45.650;25.590;2023-12-04T09:16:36;21.02;;;10.60;;
46158;SDS011;74657;45.650;25.590;2023-12-04T09:18:59;21.20;;;10.77;;
46158;SDS011;74657;45.650;25.590;2023-12-04T09:21:22;22.48;;;10.52;;
46158;SDS011;74657;45.650;25.590;2023-12-04T09:23:46;22.73;;;10.70;;
46158;SDS011;74657;45.650;25.590;2023-12-04T09:26:11;22.40;;;11.27;;
46158;SDS011;74657;45.650;25.590;2023-12-04T09:28:35;20.02;;;10.55;;
46158;SDS011;74657;45.650;25.590;2023-12-04T09:30:58;20.88;;;11.05;;
46158;SDS011;74657;45.650;25.590;2023-12-04T09:33:20;25.98;;;13.43;;
46158;SDS011;74657;45.650;25.590;2023-12-04T09:35:43;21.10;;;10.68;;
46158;SDS011;74657;45.650;25.590;2023-12-04T09:38:06;22.08;;;11.35;;
46158;SDS011;74657;45.650;25.590;2023-12-04T09:40:31;25.17;;;13.32;;
46158;SDS011;74657;45.650;25.590;2023-12-04T09:42:54;23.55;;;12.13;;
46158;SDS011;74657;45.650;25.590;2023-12-04T09:45:18;25.77;;;12.02;;
46158;SDS011;74657;45.650;25.590;2023-12-04T09:47:43;23.20;;;11.73;;
46158;SDS011;74657;45.650;25.590;2023-12-04T09:50:08;21.85;;;11.48;;
46158;SDS011;74657;45.650;25.590;2023-12-04T09:52:34;30.63;;;14.00;;
46158;SDS011;74657;45.650;25.590;2023-12-04T09:54:57;24.10;;;11.85;;
46158;SDS011;74657;45.650;25.590;2023-12-04T09:57:21;27.25;;;12.43;;
46158;SDS011;74657;45.650;25.590;2023-12-04T09:59:46;21.25;;;11.68;;
46158;SDS011;74657;45.650;25.590;2023-12-04T10:02:10;25.02;;;12.00;;
46158;SDS011;74657;45.650;25.590;2023-12-04T10:04:34;22.67;;;11.40;;
46158;SDS011;74657;45.650;25.590;2023-12-04T10:06:57;41.90;;;17.83;;
46158;SDS011;74657;45.650;25.590;2023-12-04T10:09:20;29.20;;;12.95;;
46158;SDS011;74657;45.650;25.590;2023-12-04T10:11:45;23.88;;;11.93;;
46158;SDS011;74657;45.650;25.590;2023-12-04T10:16:58;31.60;;;12.20;;
46158;SDS011;74657;45.650;25.590;2023-12-04T10:19:21;26.40;;;11.75;;
46158;SDS011;74657;45.650;25.590;2023-12-04T10:21:47;24.25;;;12.93;;
46158;SDS011;74657;45.650;25.590;2023-12-04T10:24:12;34.47;;;15.80;;
46158;SDS011;74657;45.650;25.590;2023-12-04T10:26:35;26.67;;;13.13;;
46158;SDS011;74657;45.650;25.590;2023-12-04T10:28:58;23.75;;;12.18;;
46158;SDS011;74657;45.650;25.590;2023-12-04T10:31:24;25.98;;;12.10;;
46158;SDS011;74657;45.650;25.590;2023-12-04T10:33:47;29.77;;;13.65;;
46158;SDS011;74657;45.650;25.590;2023-12-04T10:36:11;26.45;;;13.30;;
46158;SDS011;74657;45.650;25.590;2023-12-04T10:38:34;27.95;;;14.63;;
46158;SDS011;74657;45.650;25.590;2023-12-04T10:40:57;25.05;;;12.20;;
46158;SDS011;74657;45.650;25.590;2023-12-04T10:43:35;25.92;;;12.40;;
46158;SDS011;74657;45.650;25.590;2023-12-04T10:46:16;24.38;;;12.80;;
46158;SDS011;74657;45.650;25.590;2023-12-04T10:48:41;28.88;;;13.07;;
46158;SDS011;74657;45.650;25.590;2023-12-04T10:51:06;24.20;;;12.68;;
46158;SDS011;74657;45.650;25.590;2023-12-04T10:53:29;26.17;;;13.55;;
46158;SDS011;74657;45.650;25.590;2023-12-04T10:55:53;28.15;;;13.20;;
46158;SDS011;74657;45.650;25.590;2023-12-04T10:58:21;26.58;;;12.85;;
46158;SDS011;74657;45.650;25.590;2023-12-04T11:00:48;26.83;;;13.00;;
46158;SDS011;74657;45.650;25.590;2023-12-04T11:03:13;27.08;;;13.70;;
46158;SDS011;74657;45.650;25.590;2023-12-04T11:05:42;28.95;;;13.05;;
46158;SDS011;74657;45.650;25.590;2023-12-04T11:08:07;34.05;;;13.50;;
46158;SDS011;74657;45.650;25.590;2023-12-04T11:10:40;26.55;;;12.82;;
46158;SDS011;74657;45.650;25.590;2023-12-04T11:13:09;24.60;;;12.18;;
46158;SDS011;74657;45.650;25.590;2023-12-04T11:15:39;27.17;;;12.88;;
46158;SDS011;74657;45.650;25.590;2023-12-04T11:18:04;20.08;;;11.20;;
46158;SDS011;74657;45.650;25.590;2023-12-04T11:20:29;26.33;;;11.95;;
46158;SDS011;74657;45.650;25.590;2023-12-04T11:22:56;37.05;;;18.13;;
46158;SDS011;74657;45.650;25.590;2023-12-04T11:25:20;24.40;;;12.45;;
46158;SDS011;74657;45.650;25.590;2023-12-04T11:27:45;24.25;;;11.27;;
46158;SDS011;74657;45.650;25.590;2023-12-04T11:30:09;26.83;;;11.82;;
46158;SDS011;74657;45.650;25.590;2023-12-04T11:32:43;21.80;;;11.57;;
46158;SDS011;74657;45.650;25.590;2023-12-04T11:35:11;25.25;;;12.63;;
46158;SDS011;74657;45.650;25.590;2023-12-04T11:37:37;24.08;;;11.63;;
46158;SDS011;74657;45.650;25.590;2023-12-04T11:40:04;22.52;;;11.82;;
46158;SDS011;74657;45.650;25.590;2023-12-04T11:42:30;21.50;;;12.65;;
46158;SDS011;74657;45.650;25.590;2023-12-04T11:44:55;24.60;;;11.85;;
46158;SDS011;74657;45.650;25.590;2023-12-04T11:47:20;22.52;;;11.65;;
46158;SDS011;74657;45.650;25.590;2023-12-04T11:49:43;23.30;;;12.23;;
46158;SDS011;74657;45.650;25.590;2023-12-04T11:52:09;22.55;;;11.68;;
46158;SDS011;74657;45.650;25.590;2023-12-04T11:57:34;25.50;;;12.13;;
46158;SDS011;74657;45.650;25.590;2023-12-04T12:00:07;39.88;;;19.65;;
46158;SDS011;74657;45.650;25.590;2023-12-04T12:02:38;26.10;;;13.23;;
46158;SDS011;74657;45.650;25.590;2023-12-04T12:05:23;26.50;;;12.93;;
46158;SDS011;74657;45.650;25.590;2023-12-04T12:07:47;23.33;;;12.20;;
46158;SDS011;74657;45.650;25.590;2023-12-04T12:10:10;23.77;;;12.73;;
46158;SDS011;74657;45.650;25.590;2023-12-04T12:12:35;21.33;;;11.82;;
46158;SDS011;74657;45.650;25.590;2023-12-04T12:14:59;20.67;;;11.43;;
46158;SDS011;74657;45.650;25.590;2023-12-04T12:17:22;26.48;;;10.70;;
46158;SDS011;74657;45.650;25.590;2023-12-04T12:19:43;21.30;;;10.60;;
46158;SDS011;74657;45.650;25.590;2023-12-04T12:22:07;19.00;;;10.10;;
46158;SDS011;74657;45.650;25.590;2023-12-04T12:24:30;22.30;;;10.43;;
46158;SDS011;74657;45.650;25.590;2023-12-04T12:26:53;22.30;;;11.35;;
46158;SDS011;74657;45.650;25.590;2023-12-04T12:29:18;20.48;;;11.13;;
46158;SDS011;74657;45.650;25.590;2023-12-04T12:31:41;22.67;;;10.77;;
46158;SDS011;74657;45.650;25.590;2023-12-04T12:34:04;22.42;;;11.65;;
46158;SDS011;74657;45.650;25.590;2023-12-04T12:36:26;26.05;;;12.38;;
46158;SDS011;74657;45.650;25.590;2023-12-04T12:38:50;21.52;;;12.45;;
46158;SDS011;74657;45.650;25.590;2023-12-04T12:41:13;21.52;;;11.60;;
46158;SDS011;74657;45.650;25.590;2023-12-04T12:43:37;18.60;;;10.18;;
46158;SDS011;74657;45.650;25.590;2023-12-04T12:46:01;22.02;;;10.82;;
46158;SDS011;74657;45.650;25.590;2023-12-04T12:48:26;24.63;;;11.68;;
46158;SDS011;74657;45.650;25.590;2023-12-04T12:50:52;20.98;;;12.07;;
46158;SDS011;74657;45.650;25.590;2023-12-04T12:53:17;22.27;;;10.73;;
46158;SDS011;74657;45.650;25.590;2023-12-04T12:55:40;20.38;;;11.13;;
46158;SDS011;74657;45.650;25.590;2023-12-04T12:58:03;20.75;;;10.48;;
46158;SDS011;74657;45.650;25.590;2023-12-04T13:00:27;23.85;;;11.25;;
46158;SDS011;74657;45.650;25.590;2023-12-04T13:02:53;19.73;;;10.23;;
46158;SDS011;74657;45.650;25.590;2023-12-04T13:05:16;24.75;;;12.13;;
46158;SDS011;74657;45.650;25.590;2023-12-04T13:07:40;31.65;;;14.15;;
46158;SDS011;74657;45.650;25.590;2023-12-04T13:10:04;22.77;;;10.82;;
46158;SDS011;74657;45.650;25.590;2023-12-04T13:12:29;30.25;;;12.18;;
46158;SDS011;74657;45.650;25.590;2023-12-04T13:14:56;23.70;;;11.63;;
46158;SDS011;74657;45.650;25.590;2023-12-04T13:17:20;23.52;;;11.50;;
46158;SDS011;74657;45.650;25.590;2023-12-04T13:19:47;25.75;;;12.70;;
46158;SDS011;74657;45.650;25.590;2023-12-04T13:22:10;23.88;;;12.75;;
46158;SDS011;74657;45.650;25.590;2023-12-04T13:24:33;23.83;;;11.75;;
46158;SDS011;74657;45.650;25.590;2023-12-04T13:26:56;47.28;;;19.92;;
46158;SDS011;74657;45.650;25.590;2023-12-04T13:29:20;23.20;;;12.50;;
46158;SDS011;74657;45.650;25.590;2023-12-04T13:31:43;23.45;;;12.05;;
46158;SDS011;74657;45.650;25.590;2023-12-04T13:34:11;23.33;;;11.35;;
46158;SDS011;74657;45.650;25.590;2023-12-04T13:36:35;22.00;;;12.23;;
46158;SDS011;74657;45.650;25.590;2023-12-04T13:38:59;27.63;;;12.43;;
46158;SDS011;74657;45.650;25.590;2023-12-04T13:41:22;25.40;;;11.88;;
46158;SDS011;74657;45.650;25.590;2023-12-04T13:44:04;29.55;;;12.57;;
46158;SDS011;74657;45.650;25.590;2023-12-04T13:46:28;26.58;;;12.60;;
46158;SDS011;74657;45.650;25.590;2023-12-04T13:48:52;25.80;;;12.52;;
46158;SDS011;74657;45.650;25.590;2023-12-04T13:51:15;23.50;;;13.27;;
46158;SDS011;74657;45.650;25.590;2023-12-04T13:53:41;26.95;;;13.38;;
46158;SDS011;74657;45.650;25.590;2023-12-04T13:56:08;25.02;;;12.57;;
46158;SDS011;74657;45.650;25.590;2023-12-04T13:58:45;25.83;;;12.88;;